Time;durP1;ratioP1;P1;durP2;ratioP2;P2;SDS_P1;SDS_P2;PMS_P1;PMS_P2;Temp;Humidity;BMP_temperature;BMP_pressure;BME280_temperature;BME280_humidity;BME280_pressure;Samples;Min_cycle;Max_cycle;Signal;HPM_P1;HPM_P2
2022/09/14 00:01:38;;;;;;;;;;;;;;;25.91;35.23;100470.50;5044815;28;1017;-37
2022/09/14 00:04:09;;;;;;;;;;;;;;;25.96;35.24;100463.75;5047105;28;973;-36
2022/09/14 00:06:34;;;;;;;;;;;;;;;26.01;35.09;100470.25;5049349;28;1028;-35
2022/09/14 00:09:00;;;;;;;;;;;;;;;26.06;35.37;100467.00;5045849;28;1353;-36
2022/09/14 00:11:26;;;;;;;;;;;;;;;26.14;35.03;100464.22;5054529;28;1980;-36
2022/09/14 00:13:51;;;;;;;;;;;;;;;26.16;34.85;100472.13;5044878;28;1287;-36
2022/09/14 00:16:21;;;;;;;;;;;;;;;26.21;35.12;100474.31;5044846;28;993;-36
2022/09/14 00:18:53;;;;;;;;;;;;;;;26.11;35.11;100475.38;5038601;28;1234;-37
2022/09/14 00:21:18;;;;;;;;;;;;;;;26.12;35.41;100474.38;5046309;28;981;-37
2022/09/14 00:23:44;;;;;;;;;;;;;;;26.14;35.34;100475.00;5054451;28;1163;-37
2022/09/14 00:26:11;;;;;;;;;;;;;;;26.19;35.29;100474.50;5052640;28;1159;-36
2022/09/14 00:28:37;;;;;;;;;;;;;;;26.17;35.15;100480.03;5053267;28;1159;-36
2022/09/14 00:31:03;;;;;;;;;;;;;;;26.28;35.54;100477.91;5048524;28;1967;-38
2022/09/14 00:33:28;;;;;;;;;;;;;;;26.24;35.12;100485.53;5049936;28;1166;-36
2022/09/14 00:35:53;;;;;;;;;;;;;;;26.21;35.31;100485.91;5053319;28;1012;-36
2022/09/14 00:38:19;;;;;;;;;;;;;;;26.20;35.17;100488.78;5054163;28;1080;-36
2022/09/14 00:40:44;;;;;;;;;;;;;;;26.20;35.12;100499.56;5055949;28;993;-36
2022/09/14 00:43:13;;;;;;;;;;;;;;;26.21;35.56;100495.88;5055924;28;1205;-36
2022/09/14 00:45:38;;;;;;;;;;;;;;;26.22;35.40;100494.84;5057340;28;1057;-36
2022/09/14 00:48:03;;;;;;;;;;;;;;;26.16;35.28;100491.84;5049406;28;1004;-36
2022/09/14 00:50:30;;;;;;;;;;;;;;;26.22;35.32;100481.34;5052473;28;1048;-36
2022/09/14 00:52:55;;;;;;;;;;;;;;;26.22;35.05;100490.28;5054161;28;1965;-37
2022/09/14 00:55:21;;;;;;;;;;;;;;;26.20;35.07;100489.63;5054343;28;1229;-37
2022/09/14 00:57:47;;;;;;;;;;;;;;;26.18;35.21;100488.97;5056325;28;1072;-36
2022/09/14 01:00:13;;;;;;;;;;;;;;;26.19;35.01;100490.66;5036991;28;1176;-37
2022/09/14 01:02:39;;;;;;;;;;;;;;;26.21;35.33;100485.09;5040184;28;997;-37
2022/09/14 01:05:04;;;;;;;;;;;;;;;26.22;35.65;100489.44;5050960;28;985;-36
2022/09/14 01:07:44;;;;;;;;;;;;;;;26.26;35.17;100490.75;5047969;28;1091;-36
2022/09/14 01:10:12;;;;;;;;;;;;;;;26.20;35.39;100483.41;5050115;28;993;-36
2022/09/14 01:13:16;;;;;;;;;;;;;;;26.22;35.13;100489.44;5050170;28;1981;-36
2022/09/14 01:16:00;;;;;;;;;;;;;;;26.28;34.86;100486.00;4976060;28;1257;-36
2022/09/14 01:18:31;;;;;;;;;;;;;;;26.25;35.16;100489.94;4976036;28;1153;-36
2022/09/14 01:21:20;;;;;;;;;;;;;;;26.25;35.27;100487.22;5010975;28;1238;-36
2022/09/14 01:24:13;;;;;;;;;;;;;;;26.24;35.24;100487.41;5045110;28;1163;-36
2022/09/14 01:26:47;;;;;;;;;;;;;;;26.25;35.01;100491.78;5038786;28;1469;-36
2022/09/14 01:29:14;;;;;;;;;;;;;;;26.24;35.27;100487.41;5046802;28;1075;-36
2022/09/14 01:31:58;;;;;;;;;;;;;;;26.24;34.97;100485.53;5048359;28;1989;-36
2022/09/14 01:34:30;;;;;;;;;;;;;;;26.25;34.77;100484.53;5047919;28;1162;-36
2022/09/14 01:37:16;;;;;;;;;;;;;;;26.24;34.67;100482.84;5038601;28;1057;-36
2022/09/14 01:39:42;;;;;;;;;;;;;;;26.24;35.13;100485.53;5049151;28;1199;-37
2022/09/14 01:42:08;;;;;;;;;;;;;;;26.27;34.71;100487.88;5052860;28;1013;-36
2022/09/14 01:44:34;;;;;;;;;;;;;;;26.29;34.84;100491.22;5052945;28;1167;-36
2022/09/14 01:47:11;;;;;;;;;;;;;;;26.27;34.60;100490.59;5051473;28;1302;-36
2022/09/14 01:49:38;;;;;;;;;;;;;;;26.26;34.75;100494.28;5051193;28;834;-36
2022/09/14 01:52:03;;;;;;;;;;;;;;;26.47;34.42;100492.78;5049807;28;1906;-33
2022/09/14 01:54:39;;;;;;;;;;;;;;;26.55;33.73;100491.84;5054336;28;1039;-33
2022/09/14 01:57:13;;;;;;;;;;;;;;;26.64;33.83;100492.59;5052677;28;1160;-33
2022/09/14 01:59:40;;;;;;;;;;;;;;;26.89;33.35;100487.72;5054681;28;1060;-33
2022/09/14 02:02:08;;;;;;;;;;;;;;;26.92;33.58;100496.47;5044180;28;1140;-33
2022/09/14 02:04:42;;;;;;;;;;;;;;;26.96;33.30;100495.91;5041693;28;1041;-33
2022/09/14 02:07:07;;;;;;;;;;;;;;;26.94;33.18;100494.44;5046006;28;1048;-33
2022/09/14 02:09:32;;;;;;;;;;;;;;;27.04;33.01;100492.31;5050642;28;981;-33
2022/09/14 02:11:59;;;;;;;;;;;;;;;27.06;32.83;100500.22;5039438;28;1910;-34
2022/09/14 02:14:25;;;;;;;;;;;;;;;27.05;32.91;100502.06;5044794;28;934;-33
2022/09/14 02:16:50;;;;;;;;;;;;;;;27.01;33.21;100504.31;5052071;28;1037;-34
2022/09/14 02:19:15;;;;;;;;;;;;;;;27.03;33.13;100501.41;5052091;28;1244;-34
2022/09/14 02:21:41;;;;;;;;;;;;;;;27.06;33.29;100501.03;5052091;28;1169;-34
2022/09/14 02:24:06;;;;;;;;;;;;;;;27.03;32.77;100501.41;5054546;28;1151;-34
2022/09/14 02:26:32;;;;;;;;;;;;;;;26.98;32.88;100503.81;5045454;28;932;-34
2022/09/14 02:28:57;;;;;;;;;;;;;;;26.97;32.61;100499.44;5035721;28;1030;-34
2022/09/14 02:31:34;;;;;;;;;;;;;;;27.05;32.85;100503.94;5043131;28;1906;-33
2022/09/14 02:34:35;;;;;;;;;;;;;;;26.99;32.74;100500.09;5041195;28;1064;-33
2022/09/14 02:37:21;;;;;;;;;;;;;;;26.99;32.55;100495.53;4998660;28;1297;-34
2022/09/14 02:40:04;;;;;;;;;;;;;;;27.01;32.66;100501.59;5037745;28;1295;-34
2022/09/14 02:42:36;;;;;;;;;;;;;;;27.02;32.55;100499.75;5051937;28;1000;-34
2022/09/14 02:45:04;;;;;;;;;;;;;;;27.06;32.77;100494.81;5052635;28;970;-34
2022/09/14 02:47:38;;;;;;;;;;;;;;;27.05;32.95;100490.44;5050602;28;1049;-34
2022/09/14 02:50:36;;;;;;;;;;;;;;;26.95;32.89;100488.84;5045618;28;1198;-34
2022/09/14 02:53:06;;;;;;;;;;;;;;;26.95;32.91;100496.94;5002076;28;1965;-34
2022/09/14 02:55:37;;;;;;;;;;;;;;;26.98;32.74;100491.16;5051590;28;1076;-34
2022/09/14 02:58:06;;;;;;;;;;;;;;;26.92;32.70;100491.06;5053600;28;1147;-34
2022/09/14 03:00:34;;;;;;;;;;;;;;;26.58;32.29;100488.78;5041583;28;1230;-33
2022/09/14 03:03:00;;;;;;;;;;;;;;;25.75;33.31;100489.50;5042182;28;957;-34
2022/09/14 03:05:25;;;;;;;;;;;;;;;25.58;33.54;100486.91;5051745;28;1008;-34
2022/09/14 03:07:50;;;;;;;;;;;;;;;25.46;33.82;100491.03;5051597;28;1150;-33
2022/09/14 03:10:16;;;;;;;;;;;;;;;25.29;33.76;100486.56;5038886;28;1313;-35
2022/09/14 03:12:41;;;;;;;;;;;;;;;25.05;34.38;100483.00;5046598;28;1878;-35
2022/09/14 03:15:06;;;;;;;;;;;;;;;24.75;34.25;100480.06;5047134;28;1214;-35
2022/09/14 03:17:32;;;;;;;;;;;;;;;24.82;34.14;100477.53;5048081;28;1569;-35
2022/09/14 03:19:57;;;;;;;;;;;;;;;24.40;34.29;100477.66;5051095;28;1160;-35
2022/09/14 03:22:22;;;;;;;;;;;;;;;23.94;34.88;100481.69;5049016;28;1178;-35
2022/09/14 03:24:48;;;;;;;;;;;;;;;23.71;34.91;100485.03;5052637;28;1045;-34
2022/09/14 03:27:13;;;;;;;;;;;;;;;23.52;35.33;100496.09;5052081;28;1242;-35
2022/09/14 03:29:38;;;;;;;;;;;;;;;23.67;35.03;100497.09;5054173;28;1056;-35
2022/09/14 03:32:04;;;;;;;;;;;;;;;24.16;34.52;100494.59;5054482;28;1913;-35
2022/09/14 03:34:29;;;;;;;;;;;;;;;24.15;34.76;100496.47;5051403;28;1040;-35
2022/09/14 03:36:54;;;;;;;;;;;;;;;24.12;34.50;100504.88;5052707;28;985;-35
2022/09/14 03:39:19;;;;;;;;;;;;;;;23.87;34.35;100512.94;5047415;28;1243;-35
2022/09/14 03:41:45;;;;;;;;;;;;;;;23.14;34.07;100516.06;5046260;28;1409;-34
2022/09/14 03:44:10;;;;;;;;;;;;;;;23.54;33.68;100529.00;5055314;28;1021;-35
2022/09/14 03:46:35;;;;;;;;;;;;;;;23.85;33.10;100518.47;5055449;28;1041;-34
2022/09/14 03:49:01;;;;;;;;;;;;;;;23.62;33.44;100520.94;5054838;28;1032;-35
2022/09/14 03:51:26;;;;;;;;;;;;;;;23.28;33.69;100525.34;5051939;28;1902;-34
2022/09/14 03:53:52;;;;;;;;;;;;;;;23.61;33.33;100527.31;5044408;28;1420;-35
2022/09/14 03:56:18;;;;;;;;;;;;;;;23.87;33.02;100530.88;5050175;28;953;-34
2022/09/14 03:58:43;;;;;;;;;;;;;;;24.62;32.45;100534.41;5050897;28;1254;-33
2022/09/14 04:01:09;;;;;;;;;;;;;;;24.82;31.82;100528.63;5050513;28;971;-34
2022/09/14 04:03:35;;;;;;;;;;;;;;;24.72;31.86;100525.28;5049501;28;1436;-33
2022/09/14 04:06:04;;;;;;;;;;;;;;;24.79;31.86;100524.41;5048114;28;1048;-35
2022/09/14 04:08:29;;;;;;;;;;;;;;;24.97;31.64;100527.94;5051124;28;981;-35
2022/09/14 04:10:54;;;;;;;;;;;;;;;25.09;31.72;100531.09;5055682;28;1897;-34
2022/09/14 04:13:20;;;;;;;;;;;;;;;25.15;31.97;100530.38;5054465;28;1210;-42
2022/09/14 04:15:54;;;;;;;;;;;;;;;25.22;31.76;100535.91;5050961;28;1039;-44
2022/09/14 04:18:19;;;;;;;;;;;;;;;25.31;31.58;100535.69;5053512;28;1168;-43
2022/09/14 04:20:45;;;;;;;;;;;;;;;25.37;31.72;100536.84;5041504;28;1047;-44
2022/09/14 04:23:11;;;;;;;;;;;;;;;25.42;31.50;100533.63;5049071;28;989;-43
2022/09/14 04:25:36;;;;;;;;;;;;;;;25.39;31.70;100540.19;5047494;28;1583;-43
2022/09/14 04:28:01;;;;;;;;;;;;;;;25.46;31.70;100542.19;5046897;28;970;-43
2022/09/14 04:30:26;;;;;;;;;;;;;;;25.51;31.64;100539.78;5048964;28;1151;-43
2022/09/14 04:32:52;;;;;;;;;;;;;;;25.53;31.70;100537.75;5046392;28;1910;-43
2022/09/14 04:35:18;;;;;;;;;;;;;;;25.55;31.86;100549.19;5052504;28;1226;-43
2022/09/14 04:37:43;;;;;;;;;;;;;;;25.59;31.97;100541.63;5055384;28;1000;-43
2022/09/14 04:40:08;;;;;;;;;;;;;;;25.59;32.04;100545.13;5050811;28;1179;-43
2022/09/14 04:42:34;;;;;;;;;;;;;;;25.74;31.99;100553.31;5056595;28;2509;-43
2022/09/14 04:44:59;;;;;;;;;;;;;;;25.73;32.55;100550.81;5046593;28;1962;-43
2022/09/14 04:47:24;;;;;;;;;;;;;;;25.76;32.54;100551.28;5050138;28;1969;-43
2022/09/14 04:49:50;;;;;;;;;;;;;;;25.74;33.06;100553.31;5047621;28;1793;-43
2022/09/14 04:52:15;;;;;;;;;;;;;;;25.80;32.65;100562.56;5051592;28;2083;-43
2022/09/14 04:54:40;;;;;;;;;;;;;;;25.84;32.74;100560.34;5045563;28;1782;-43
2022/09/14 04:57:06;;;;;;;;;;;;;;;25.87;32.85;100555.44;5055202;28;2179;-43
2022/09/14 04:59:31;;;;;;;;;;;;;;;25.98;32.78;100556.03;5050766;28;965;-43
2022/09/14 05:01:56;;;;;;;;;;;;;;;25.97;32.88;100557.91;5048252;28;1168;-43
2022/09/14 05:04:22;;;;;;;;;;;;;;;25.95;32.99;100561.78;5048217;28;1305;-43
2022/09/14 05:06:49;;;;;;;;;;;;;;;25.99;33.21;100555.84;5048213;28;1238;-43
2022/09/14 05:09:14;;;;;;;;;;;;;;;25.98;33.39;100553.31;5048814;28;1239;-43
2022/09/14 05:11:40;;;;;;;;;;;;;;;26.00;33.48;100559.38;5050375;28;1875;-43
2022/09/14 05:14:05;;;;;;;;;;;;;;;26.14;33.07;100560.47;5048248;28;1726;-43
2022/09/14 05:16:34;;;;;;;;;;;;;;;26.14;33.40;100563.97;5046933;28;1223;-43
2022/09/14 05:19:00;;;;;;;;;;;;;;;26.11;33.61;100550.88;5049033;28;1253;-43
2022/09/14 05:21:26;;;;;;;;;;;;;;;26.19;33.22;100555.38;5048876;28;1282;-43
2022/09/14 05:23:52;;;;;;;;;;;;;;;26.29;33.58;100555.94;5051335;28;1226;-43
2022/09/14 05:26:17;;;;;;;;;;;;;;;26.27;33.73;100557.16;5047396;28;1793;-43
2022/09/14 05:28:42;;;;;;;;;;;;;;;26.37;33.50;100555.06;5049480;28;1219;-43
2022/09/14 05:31:08;;;;;;;;;;;;;;;26.30;33.63;100564.88;5049683;28;1914;-42
2022/09/14 05:33:33;;;;;;;;;;;;;;;26.33;33.62;100553.75;5049161;28;1191;-43
2022/09/14 05:36:02;;;;;;;;;;;;;;;26.36;33.82;100555.25;5046213;28;1211;-43
2022/09/14 05:38:28;;;;;;;;;;;;;;;26.35;34.09;100553.56;5043208;28;1203;-43
2022/09/14 05:40:54;;;;;;;;;;;;;;;26.45;33.55;100554.16;5052221;28;881;-43
2022/09/14 05:43:21;;;;;;;;;;;;;;;26.48;33.21;100558.31;5049350;28;1222;-43
2022/09/14 05:45:46;;;;;;;;;;;;;;;26.63;33.30;100564.59;5053697;28;1092;-43
2022/09/14 05:48:12;;;;;;;;;;;;;;;26.63;33.35;100570.00;5052549;28;1159;-42
2022/09/14 05:50:37;;;;;;;;;;;;;;;26.56;33.66;100574.44;5045822;28;1052;-43
2022/09/14 05:53:02;;;;;;;;;;;;;;;26.53;33.78;100574.81;5047457;28;1910;-43
2022/09/14 05:55:27;;;;;;;;;;;;;;;26.51;34.20;100576.84;5046864;28;1099;-43
2022/09/14 05:57:53;;;;;;;;;;;;;;;26.48;34.01;100583.44;5051359;28;1714;-43
2022/09/14 06:00:18;;;;;;;;;;;;;;;26.55;33.96;100582.72;5048776;28;1045;-43
2022/09/14 06:02:50;;;;;;;;;;;;;;;26.58;33.76;100579.63;5051407;28;1293;-43
2022/09/14 06:05:15;;;;;;;;;;;;;;;26.55;34.09;100580.84;5049705;28;1096;-43
2022/09/14 06:07:41;;;;;;;;;;;;;;;26.57;34.24;100575.28;5052590;28;1005;-43
2022/09/14 06:10:06;;;;;;;;;;;;;;;26.67;34.15;100581.25;5054783;28;1052;-43
2022/09/14 06:12:32;;;;;;;;;;;;;;;26.71;34.13;100579.03;5054390;28;1902;-43
2022/09/14 06:14:57;;;;;;;;;;;;;;;26.75;33.98;100588.41;5047572;28;997;-43
2022/09/14 06:17:22;;;;;;;;;;;;;;;26.76;34.05;100590.09;5043172;28;1041;-43
2022/09/14 06:19:48;;;;;;;;;;;;;;;26.86;34.08;100584.44;5043810;28;1318;-42
2022/09/14 06:22:13;;;;;;;;;;;;;;;26.87;34.27;100584.25;5045094;28;966;-43
2022/09/14 06:24:38;;;;;;;;;;;;;;;26.92;33.88;100585.53;5048388;28;957;-42
2022/09/14 06:27:05;;;;;;;;;;;;;;;26.75;34.44;100583.88;5045440;28;1845;-43
2022/09/14 06:29:30;;;;;;;;;;;;;;;26.76;34.66;100582.84;5045108;28;1214;-43
2022/09/14 06:31:55;;;;;;;;;;;;;;;26.87;34.51;100586.97;5044746;28;1963;-43
2022/09/14 06:34:21;;;;;;;;;;;;;;;26.98;33.99;100588.34;5049639;28;1195;-44
2022/09/14 06:36:47;;;;;;;;;;;;;;;26.96;34.36;100590.38;5053458;28;1067;-43
2022/09/14 06:39:12;;;;;;;;;;;;;;;26.96;34.13;100587.69;5046769;28;1560;-43
2022/09/14 06:41:37;;;;;;;;;;;;;;;26.88;34.16;100588.63;5054766;28;973;-43
2022/09/14 06:44:03;;;;;;;;;;;;;;;27.00;34.02;100596.25;5041631;28;1068;-43
2022/09/14 06:46:29;;;;;;;;;;;;;;;26.95;34.29;100595.97;5050231;28;1187;-43
2022/09/14 06:48:57;;;;;;;;;;;;;;;26.96;34.71;100592.25;5054821;28;1013;-42
2022/09/14 06:51:24;;;;;;;;;;;;;;;26.95;34.71;100595.97;5047531;28;1898;-42
2022/09/14 06:53:49;;;;;;;;;;;;;;;26.96;34.54;100595.78;5036131;28;1087;-43
2022/09/14 06:56:15;;;;;;;;;;;;;;;26.95;34.86;100593.25;5045041;28;1172;-43
2022/09/14 06:58:40;;;;;;;;;;;;;;;26.94;34.91;100594.31;5042242;28;2514;-43
2022/09/14 07:01:06;;;;;;;;;;;;;;;27.05;34.86;100595.72;5049776;28;1017;-43
2022/09/14 07:03:31;;;;;;;;;;;;;;;27.10;35.14;100598.69;5051996;28;886;-43
2022/09/14 07:06:05;;;;;;;;;;;;;;;27.22;35.32;100594.53;5053610;28;1004;-43
2022/09/14 07:08:30;;;;;;;;;;;;;;;27.25;34.50;100596.00;5048784;28;1096;-43
2022/09/14 07:10:56;;;;;;;;;;;;;;;27.21;35.11;100592.81;5052778;28;1886;-43
2022/09/14 07:13:22;;;;;;;;;;;;;;;27.14;35.50;100598.13;5050259;28;1028;-43
2022/09/14 07:15:48;;;;;;;;;;;;;;;27.26;35.38;100593.09;5045524;28;1046;-43
2022/09/14 07:18:14;;;;;;;;;;;;;;;27.33;35.22;100595.03;5048552;28;985;-43
2022/09/14 07:20:39;;;;;;;;;;;;;;;27.30;35.17;100596.28;5053908;28;1168;-43
2022/09/14 07:23:04;;;;;;;;;;;;;;;27.18;35.57;100595.91;5054086;28;976;-43
2022/09/14 07:25:30;;;;;;;;;;;;;;;27.17;35.81;100594.25;5054318;28;1013;-43
2022/09/14 07:27:55;;;;;;;;;;;;;;;27.14;36.60;100589.22;5049496;28;2527;-44
2022/09/14 07:30:21;;;;;;;;;;;;;;;27.35;36.17;100593.00;5051151;28;1172;-42
2022/09/14 07:32:46;;;;;;;;;;;;;;;27.34;35.83;100591.34;5055378;28;1970;-43
2022/09/14 07:35:12;;;;;;;;;;;;;;;27.18;36.94;100598.59;5042089;28;977;-43
2022/09/14 07:37:37;;;;;;;;;;;;;;;27.47;36.41;100599.59;5049415;28;965;-41
2022/09/14 07:40:02;;;;;;;;;;;;;;;27.46;36.43;100600.63;5045890;28;1073;-43
2022/09/14 07:42:28;;;;;;;;;;;;;;;27.42;36.38;100593.94;5048242;28;1059;-43
2022/09/14 07:44:53;;;;;;;;;;;;;;;27.35;37.37;100595.69;5047763;28;1036;-43
2022/09/14 07:47:18;;;;;;;;;;;;;;;27.35;36.99;100595.69;5051964;28;993;-44
2022/09/14 07:49:44;;;;;;;;;;;;;;;27.38;36.77;100598.03;5052630;28;1052;-43
2022/09/14 07:52:10;;;;;;;;;;;;;;;27.32;37.39;100594.22;5050189;28;1890;-43
2022/09/14 07:54:35;;;;;;;;;;;;;;;27.34;37.15;100594.84;5046053;28;1002;-43
2022/09/14 07:57:00;;;;;;;;;;;;;;;27.41;36.93;100591.41;5048486;28;1877;-44
2022/09/14 07:59:26;;;;;;;;;;;;;;;27.42;36.73;100596.63;5055446;28;1051;-43
2022/09/14 08:01:51;;;;;;;;;;;;;;;27.49;37.06;100602.13;5055339;28;1143;-43
2022/09/14 08:04:16;;;;;;;;;;;;;;;27.52;36.99;100590.94;5055155;28;1054;-43
2022/09/14 08:06:41;;;;;;;;;;;;;;;27.53;36.68;100592.59;5052627;28;1155;-43
2022/09/14 08:09:09;;;;;;;;;;;;;;;27.48;36.75;100589.63;5049145;28;1092;-43
2022/09/14 08:11:35;;;;;;;;;;;;;;;27.48;37.18;100595.88;5048863;28;1925;-43
2022/09/14 08:14:02;;;;;;;;;;;;;;;27.46;37.04;100591.69;5054022;28;1215;-43
2022/09/14 08:16:28;;;;;;;;;;;;;;;27.53;36.76;100591.78;5057729;28;939;-43
2022/09/14 08:18:54;;;;;;;;;;;;;;;27.60;36.57;100592.66;5046885;28;1418;-43
2022/09/14 08:21:19;;;;;;;;;;;;;;;27.67;36.42;100592.75;5050012;28;1009;-43
2022/09/14 08:23:44;;;;;;;;;;;;;;;27.58;36.48;100598.28;5050873;28;1001;-42
2022/09/14 08:26:14;;;;;;;;;;;;;;;27.62;36.41;100586.06;5051484;28;1028;-42
2022/09/14 08:28:39;;;;;;;;;;;;;;;27.57;36.84;100593.06;5040484;28;2676;-42
2022/09/14 08:31:05;;;;;;;;;;;;;;;27.63;36.22;100587.72;5053168;28;1963;-42
2022/09/14 08:33:32;;;;;;;;;;;;;;;27.70;35.80;100587.84;5055900;28;1084;-43
2022/09/14 08:35:57;;;;;;;;;;;;;;;27.72;36.24;100595.75;5055041;28;1147;-42
2022/09/14 08:38:23;;;;;;;;;;;;;;;27.71;35.97;100592.19;5052596;28;1049;-43
2022/09/14 08:40:50;;;;;;;;;;;;;;;27.73;36.24;100595.56;5054808;28;850;-43
2022/09/14 08:43:15;;;;;;;;;;;;;;;27.68;36.46;100583.59;5051678;28;1342;-42
2022/09/14 08:45:41;;;;;;;;;;;;;;;27.71;36.27;100583.28;5057307;28;1254;-43
2022/09/14 08:48:09;;;;;;;;;;;;;;;27.77;35.72;100581.66;5048451;28;1009;-42
2022/09/14 08:50:34;;;;;;;;;;;;;;;27.82;35.80;100581.94;5040492;28;946;-42
2022/09/14 08:52:59;;;;;;;;;;;;;;;27.91;35.72;100578.06;5046882;28;1969;-42
2022/09/14 08:55:36;;;;;;;;;;;;;;;27.82;35.67;100561.16;5049912;28;1175;-42
2022/09/14 08:58:04;;;;;;;;;;;;;;;27.77;35.47;100566.28;5044901;28;1833;-42
2022/09/14 09:00:36;;;;;;;;;;;;;;;27.73;35.91;100567.69;5049033;28;1429;-42
2022/09/14 09:03:04;;;;;;;;;;;;;;;27.72;35.69;100566.88;5045888;28;1322;-43
2022/09/14 09:05:51;;;;;;;;;;;;;;;27.74;35.43;100566.69;5049356;28;1195;-42
2022/09/14 09:08:43;;;;;;;;;;;;;;;27.68;35.52;100546.66;5048403;28;1270;-42
2022/09/14 09:11:16;;;;;;;;;;;;;;;27.75;35.26;100552.97;5045366;28;1961;-43
2022/09/14 09:13:42;;;;;;;;;;;;;;;27.75;35.28;100560.22;5049539;28;1203;-42
2022/09/14 09:16:08;;;;;;;;;;;;;;;27.84;34.92;100561.75;5050685;28;1440;-42
2022/09/14 09:18:46;;;;;;;;;;;;;;;27.86;35.20;100567.00;5049692;28;1425;-43
2022/09/14 09:21:24;;;;;;;;;;;;;;;27.86;35.32;100567.00;5041650;28;1144;-42
2022/09/14 09:23:49;;;;;;;;;;;;;;;27.86;35.20;100564.31;5047514;28;1202;-43
2022/09/14 09:26:24;;;;;;;;;;;;;;;27.90;34.50;100576.41;5047051;28;1116;-42
2022/09/14 09:28:52;;;;;;;;;;;;;;;27.96;35.06;100566.69;5050402;28;1172;-42
2022/09/14 09:31:18;;;;;;;;;;;;;;;27.98;35.15;100556.50;5050736;28;1898;-43
2022/09/14 09:33:45;;;;;;;;;;;;;;;28.02;34.97;100554.25;5051967;28;1260;-42
2022/09/14 09:36:11;;;;;;;;;;;;;;;28.05;34.61;100540.34;5044803;28;1235;-43
2022/09/14 09:38:37;;;;;;;;;;;;;;;28.01;34.55;100544.47;5044481;28;1128;-42
2022/09/14 09:41:20;;;;;;;;;;;;;;;28.04;34.46;100542.22;5045737;28;1302;-43
2022/09/14 09:43:56;;;;;;;;;;;;;;;28.03;34.72;100542.41;5048118;28;1239;-44
2022/09/14 09:46:21;;;;;;;;;;;;;;;28.02;34.93;100540.72;5049993;28;1301;-42
2022/09/14 09:48:47;;;;;;;;;;;;;;;28.08;34.78;100526.41;5051282;28;1290;-42
2022/09/14 09:51:15;;;;;;;;;;;;;;;28.11;34.36;100534.16;5049219;28;1910;-42
2022/09/14 09:54:00;;;;;;;;;;;;;;;28.13;34.34;100533.97;5046991;28;1287;-42
2022/09/14 09:56:30;;;;;;;;;;;;;;;28.17;34.24;100532.53;5052087;28;2298;-43
2022/09/14 09:58:55;;;;;;;;;;;;;;;28.17;34.07;100530.69;5043538;28;1289;-42
2022/09/14 10:01:20;;;;;;;;;;;;;;;28.20;33.68;100535.69;5043367;28;1008;-42
2022/09/14 10:03:58;;;;;;;;;;;;;;;28.24;34.23;100534.25;5048496;28;1253;-42
2022/09/14 10:06:24;;;;;;;;;;;;;;;28.28;33.99;100536.59;5051030;28;1041;-42
2022/09/14 10:08:49;;;;;;;;;;;;;;;28.27;33.88;100526.78;5048065;28;1290;-42
2022/09/14 10:11:28;;;;;;;;;;;;;;;28.31;34.07;100541.59;5046687;28;1980;-42
2022/09/14 10:13:53;;;;;;;;;;;;;;;28.36;33.62;100531.88;5051937;28;1199;-42
2022/09/14 10:16:18;;;;;;;;;;;;;;;28.36;33.49;100533.78;5046902;28;1176;-42
2022/09/14 10:18:45;;;;;;;;;;;;;;;28.34;33.47;100528.53;5047669;28;1084;-42
2022/09/14 10:21:10;;;;;;;;;;;;;;;28.41;33.46;100530.47;5044912;28;1068;-42
2022/09/14 10:23:37;;;;;;;;;;;;;;;28.39;33.64;100524.41;5047725;28;998;-42
2022/09/14 10:26:11;;;;;;;;;;;;;;;28.30;33.63;100529.94;5048489;28;1134;-42
2022/09/14 10:28:36;;;;;;;;;;;;;;;28.39;33.47;100532.53;5046628;28;1930;-42
2022/09/14 10:31:06;;;;;;;;;;;;;;;28.37;33.49;100527.31;5045985;28;1981;-42
2022/09/14 10:33:31;;;;;;;;;;;;;;;28.48;32.93;100534.88;5045648;28;1057;-42
2022/09/14 10:36:13;;;;;;;;;;;;;;;28.51;33.10;100525.53;5049041;28;1123;-43
2022/09/14 10:38:40;;;;;;;;;;;;;;;28.50;33.14;100523.00;5047665;28;1172;-42
2022/09/14 10:41:12;;;;;;;;;;;;;;;28.48;33.39;100525.91;5049411;28;1253;-42
2022/09/14 10:43:38;;;;;;;;;;;;;;;28.47;33.57;100522.41;5044498;28;1193;-42
2022/09/14 10:46:03;;;;;;;;;;;;;;;28.51;33.19;100524.69;5048828;28;1251;-42
2022/09/14 10:48:47;;;;;;;;;;;;;;;28.49;32.62;100524.91;5049283;28;1269;-43
2022/09/14 10:51:12;;;;;;;;;;;;;;;28.57;33.15;100516.63;5045706;28;1897;-42
2022/09/14 10:53:53;;;;;;;;;;;;;;;28.51;33.21;100513.88;5045803;28;1278;-42
2022/09/14 10:56:18;;;;;;;;;;;;;;;28.56;33.04;100516.84;5051462;28;2370;-43
2022/09/14 10:58:53;;;;;;;;;;;;;;;28.59;32.71;100519.13;5048937;28;1240;-42
2022/09/14 11:01:21;;;;;;;;;;;;;;;28.65;32.73;100515.63;5044289;28;1009;-43
2022/09/14 11:04:05;;;;;;;;;;;;;;;28.57;32.41;100511.22;5051198;28;1083;-43
2022/09/14 11:06:39;;;;;;;;;;;;;;;28.43;32.84;100499.47;5050097;28;894;-42
2022/09/14 11:09:22;;;;;;;;;;;;;;;28.39;32.89;100495.50;5055112;28;1025;-42
2022/09/14 11:11:50;;;;;;;;;;;;;;;28.44;32.58;100493.03;5040930;28;1914;-42
2022/09/14 11:14:28;;;;;;;;;;;;;;;28.49;31.91;100495.13;5051027;28;1087;-42
2022/09/14 11:17:14;;;;;;;;;;;;;;;28.47;31.88;100498.03;5047406;28;956;-43
2022/09/14 11:19:58;;;;;;;;;;;;;;;28.53;32.35;100495.59;5047023;28;1454;-42
2022/09/14 11:22:39;;;;;;;;;;;;;;;28.48;32.29;100496.16;5046387;28;1013;-43
2022/09/14 11:25:11;;;;;;;;;;;;;;;28.55;32.28;100493.50;5046297;28;997;-42
2022/09/14 11:27:39;;;;;;;;;;;;;;;28.59;32.01;100495.59;5042156;28;2366;-43
2022/09/14 11:30:10;;;;;;;;;;;;;;;28.64;31.98;100495.03;5038886;28;1036;-42
2022/09/14 11:32:44;;;;;;;;;;;;;;;28.59;31.86;100503.72;5052314;28;1906;-42
2022/09/14 11:35:18;;;;;;;;;;;;;;;28.61;32.32;100498.13;5050931;28;1284;-43
2022/09/14 11:37:45;;;;;;;;;;;;;;;28.70;31.75;100487.97;5043498;28;977;-42
2022/09/14 11:40:25;;;;;;;;;;;;;;;28.77;32.40;100493.41;5052567;28;1136;-42
2022/09/14 11:42:56;;;;;;;;;;;;;;;28.84;32.09;100489.69;5046560;28;844;-43
2022/09/14 11:45:33;;;;;;;;;;;;;;;28.87;32.08;100474.09;5044077;28;1024;-43
2022/09/14 11:48:19;;;;;;;;;;;;;;;28.87;32.21;100485.75;5039916;28;1100;-42
2022/09/14 11:50:44;;;;;;;;;;;;;;;28.89;31.95;100485.56;5041568;28;1746;-42
2022/09/14 11:53:14;;;;;;;;;;;;;;;28.91;32.22;100467.25;5053623;28;1909;-42
2022/09/14 11:55:42;;;;;;;;;;;;;;;28.81;32.39;100479.25;5051093;28;965;-42
2022/09/14 11:58:11;;;;;;;;;;;;;;;28.72;32.36;100464.25;5049139;28;2520;-43
2022/09/14 12:00:46;;;;;;;;;;;;;;;28.59;32.98;100457.72;5038035;28;1184;-43
2022/09/14 12:03:14;;;;;;;;;;;;;;;28.51;33.03;100454.34;5045415;28;981;-43
2022/09/14 12:05:40;;;;;;;;;;;;;;;28.71;32.88;100454.47;5043932;28;1104;-43
2022/09/14 12:08:24;;;;;;;;;;;;;;;28.83;32.61;100449.28;5051695;28;1218;-42
2022/09/14 12:11:21;;;;;;;;;;;;;;;28.92;32.06;100444.53;5050813;28;1255;-42
2022/09/14 12:13:46;;;;;;;;;;;;;;;28.93;32.47;100435.38;5049739;28;1255;-42
2022/09/14 12:16:12;;;;;;;;;;;;;;;28.97;32.22;100439.38;5049456;28;1322;-42
2022/09/14 12:18:38;;;;;;;;;;;;;;;28.91;32.25;100430.16;5048799;28;1254;-43
2022/09/14 12:21:04;;;;;;;;;;;;;;;28.92;32.12;100420.16;5053749;28;1231;-42
2022/09/14 12:23:38;;;;;;;;;;;;;;;28.91;32.07;100415.81;5050765;28;1238;-43
2022/09/14 12:26:09;;;;;;;;;;;;;;;28.99;32.05;100421.06;5047509;28;1445;-42
2022/09/14 12:28:35;;;;;;;;;;;;;;;28.99;32.20;100418.34;5049510;28;2445;-44
2022/09/14 12:31:03;;;;;;;;;;;;;;;28.92;32.31;100412.88;5051507;28;1202;-42
2022/09/14 12:33:31;;;;;;;;;;;;;;;28.99;32.00;100403.97;5052086;28;1902;-43
2022/09/14 12:36:03;;;;;;;;;;;;;;;29.03;31.97;100416.91;5046228;28;1160;-42
2022/09/14 12:38:31;;;;;;;;;;;;;;;29.04;32.07;100405.03;5048197;28;1239;-42
2022/09/14 12:41:20;;;;;;;;;;;;;;;28.96;32.20;100411.44;5048318;28;1148;-42
2022/09/14 12:43:46;;;;;;;;;;;;;;;28.99;32.22;100412.09;5019663;28;1219;-43
2022/09/14 12:46:20;;;;;;;;;;;;;;;29.02;32.04;100411.69;5045806;28;1314;-42
2022/09/14 12:48:54;;;;;;;;;;;;;;;28.99;32.31;100407.53;5048579;28;1040;-43
2022/09/14 12:51:22;;;;;;;;;;;;;;;28.97;32.29;100404.19;5050438;28;1961;-42
2022/09/14 12:53:49;;;;;;;;;;;;;;;29.07;32.24;100401.06;5047818;28;1092;-42
2022/09/14 12:56:22;;;;;;;;;;;;;;;29.03;32.12;100402.53;5048694;28;1227;-42